Time;durP1;ratioP1;P1;durP2;ratioP2;P2;SDS_P1;SDS_P2;PMS_P1;PMS_P2;Temp;Humidity;BMP_temperature;BMP_pressure;BME280_temperature;BME280_humidity;BME280_pressure;Samples;Min_cycle;Max_cycle;Signal;HPM_P1;HPM_P2
2022/06/26 00:01:42;;;;;;;5.83;4.57;;;17.30;99.90;;;;;;5049030;28;20455;-66
2022/06/26 00:04:08;;;;;;;6.50;5.27;;;17.40;99.90;;;;;;5049426;28;20467;-67
2022/06/26 00:06:35;;;;;;;6.47;4.70;;;17.40;99.90;;;;;;5049591;28;20462;-67
2022/06/26 00:09:02;;;;;;;5.83;5.30;;;17.40;99.90;;;;;;5049547;28;20466;-66
2022/06/26 00:11:29;;;;;;;5.10;4.60;;;17.30;99.90;;;;;;5048864;28;20452;-67
2022/06/26 00:13:57;;;;;;;5.60;5.10;;;17.30;99.90;;;;;;5049384;28;20491;-67
2022/06/26 00:16:24;;;;;;;6.03;5.43;;;17.20;99.90;;;;;;5048797;28;20459;-66
2022/06/26 00:18:51;;;;;;;5.57;4.83;;;17.30;99.90;;;;;;5049282;28;21106;-67
2022/06/26 00:21:18;;;;;;;6.97;5.27;;;17.40;99.90;;;;;;5048776;28;20551;-67
2022/06/26 00:23:45;;;;;;;5.60;5.10;;;17.40;99.90;;;;;;5049007;28;20471;-67
2022/06/26 00:26:11;;;;;;;6.87;5.77;;;17.40;99.90;;;;;;5049352;28;20953;-67
2022/06/26 00:28:38;;;;;;;7.40;5.30;;;17.40;99.90;;;;;;5048790;28;20452;-67
2022/06/26 00:31:06;;;;;;;5.43;4.93;;;17.40;99.90;;;;;;5048867;28;20452;-66
2022/06/26 00:33:33;;;;;;;5.53;5.03;;;17.30;99.90;;;;;;5048683;28;20491;-67
2022/06/26 00:36:00;;;;;;;5.33;4.83;;;17.20;99.90;;;;;;5049184;28;20448;-67
2022/06/26 00:38:27;;;;;;;5.73;5.13;;;17.10;99.90;;;;;;5048881;28;20443;-67
2022/06/26 00:40:54;;;;;;;6.33;4.43;;;17.10;99.90;;;;;;5048748;28;20447;-67
2022/06/26 00:43:21;;;;;;;5.07;4.57;;;17.10;99.90;;;;;;5047908;28;20479;-67
2022/06/26 00:45:47;;;;;;;5.63;4.67;;;17.10;99.90;;;;;;5048917;28;20460;-67
2022/06/26 00:48:15;;;;;;;5.70;4.30;;;17.20;99.90;;;;;;5049066;28;20480;-67
2022/06/26 00:50:42;;;;;;;9.20;5.00;;;17.30;99.90;;;;;;5048597;28;20543;-67
2022/06/26 00:53:09;;;;;;;9.13;5.10;;;17.50;99.90;;;;;;5048943;28;20973;-67
2022/06/26 00:55:36;;;;;;;5.73;4.73;;;17.60;99.90;;;;;;5048647;28;20448;-66
2022/06/26 00:58:03;;;;;;;4.87;4.47;;;17.70;99.90;;;;;;5048823;28;20937;-66
2022/06/26 01:00:30;;;;;;;6.83;5.07;;;17.80;99.90;;;;;;5048839;28;20446;-66
2022/06/26 01:02:57;;;;;;;7.87;4.77;;;17.90;99.90;;;;;;5048381;28;20539;-67
2022/06/26 01:05:25;;;;;;;5.30;4.37;;;18.00;99.90;;;;;;5049099;28;20452;-67
2022/06/26 01:07:52;;;;;;;5.03;4.53;;;18.00;99.90;;;;;;5048526;28;20460;-67
2022/06/26 01:10:19;;;;;;;5.60;4.23;;;17.90;99.90;;;;;;5048392;28;20462;-67
2022/06/26 01:12:46;;;;;;;6.80;5.33;;;18.00;99.90;;;;;;5048317;28;20479;-67
2022/06/26 01:15:13;;;;;;;7.60;5.10;;;18.00;99.90;;;;;;5048935;28;20503;-67
2022/06/26 01:17:40;;;;;;;5.00;4.43;;;17.90;99.90;;;;;;5049058;28;20455;-68
2022/06/26 01:20:08;;;;;;;6.90;5.00;;;18.00;99.90;;;;;;5045407;28;20447;-68
2022/06/26 01:22:36;;;;;;;5.50;5.00;;;18.00;99.90;;;;;;5048693;28;20460;-68
2022/06/26 01:25:04;;;;;;;6.73;5.30;;;17.90;99.90;;;;;;5047715;28;20448;-68
2022/06/26 01:27:31;;;;;;;6.37;5.00;;;18.00;99.90;;;;;;5048972;28;20444;-68
2022/06/26 01:29:58;;;;;;;5.20;4.70;;;18.10;99.90;;;;;;5048784;28;20456;-67
2022/06/26 01:32:25;;;;;;;5.50;4.90;;;18.20;99.90;;;;;;5048766;28;20483;-67
2022/06/26 01:34:53;;;;;;;6.77;5.33;;;18.30;99.90;;;;;;5048829;28;20869;-67
2022/06/26 01:37:20;;;;;;;6.10;4.67;;;18.30;99.90;;;;;;5048795;28;20458;-67
2022/06/26 01:39:48;;;;;;;5.57;4.70;;;18.30;99.90;;;;;;5048607;28;20448;-65
2022/06/26 01:42:15;;;;;;;5.60;4.90;;;18.40;99.90;;;;;;5048725;28;20977;-67
2022/06/26 01:44:42;;;;;;;6.10;5.50;;;18.50;99.90;;;;;;5049011;28;20826;-67
2022/06/26 01:47:09;;;;;;;7.87;5.00;;;18.50;99.90;;;;;;5048793;28;20456;-67
2022/06/26 01:49:36;;;;;;;6.90;5.03;;;18.40;99.90;;;;;;5048943;28;20451;-67
2022/06/26 01:52:03;;;;;;;5.37;4.73;;;18.50;99.90;;;;;;5048304;28;20448;-67
2022/06/26 01:54:29;;;;;;;7.53;5.33;;;18.50;99.90;;;;;;5051024;28;20487;-67
2022/06/26 01:56:57;;;;;;;5.97;4.97;;;18.50;99.90;;;;;;5052531;28;20458;-66
2022/06/26 01:59:24;;;;;;;6.63;4.70;;;18.40;99.90;;;;;;5052287;28;20454;-67
2022/06/26 02:01:51;;;;;;;6.73;5.17;;;18.50;99.90;;;;;;5051874;28;20444;-66
2022/06/26 02:04:18;;;;;;;5.53;4.80;;;18.50;99.90;;;;;;5052106;28;20449;-67
2022/06/26 02:06:46;;;;;;;4.70;4.30;;;18.40;99.90;;;;;;5052023;28;20463;-67
2022/06/26 02:13:36;;;;;;;5.90;5.10;;;18.30;99.90;;;;;;5051979;28;20501;-67
2022/06/26 02:14:46;;;;;;;4.97;4.47;;;18.30;99.90;;;;;;5051895;28;20533;-67
2022/06/26 02:17:13;;;;;;;6.60;5.53;;;18.20;99.90;;;;;;5051943;28;20980;-66
2022/06/26 02:19:40;;;;;;;6.53;5.80;;;18.10;99.90;;;;;;5052051;28;20444;-66
2022/06/26 02:22:06;;;;;;;5.87;5.27;;;18.00;99.90;;;;;;5051834;28;20476;-67
2022/06/26 02:24:33;;;;;;;6.07;5.40;;;18.20;99.90;;;;;;5051987;28;20450;-67
2022/06/26 02:27:01;;;;;;;6.60;4.87;;;18.10;99.90;;;;;;5051961;28;20861;-67
2022/06/26 02:29:28;;;;;;;13.30;4.80;;;18.10;99.90;;;;;;5051972;28;20451;-67
2022/06/26 02:31:55;;;;;;;5.27;4.77;;;18.00;99.90;;;;;;5051710;28;20450;-67
2022/06/26 02:34:22;;;;;;;5.87;5.37;;;17.90;99.90;;;;;;5051799;28;21005;-67
2022/06/26 02:36:48;;;;;;;6.53;5.93;;;17.90;99.90;;;;;;5051783;28;20959;-67
2022/06/26 02:39:15;;;;;;;6.43;5.10;;;17.80;99.90;;;;;;5051846;28;20448;-67
2022/06/26 02:41:42;;;;;;;5.87;5.07;;;17.70;99.90;;;;;;5051313;28;20551;-66
2022/06/26 02:44:10;;;;;;;5.90;5.07;;;17.70;99.90;;;;;;5051336;28;20475;-68
2022/06/26 02:46:37;;;;;;;5.83;5.27;;;17.50;99.90;;;;;;5051607;28;20448;-66
2022/06/26 02:49:04;;;;;;;5.30;4.80;;;17.50;99.90;;;;;;5051707;28;20452;-67
2022/06/26 02:51:30;;;;;;;5.93;5.27;;;17.50;99.90;;;;;;5051240;28;20546;-67
2022/06/26 02:53:57;;;;;;;5.40;4.90;;;17.40;99.90;;;;;;5051168;28;21001;-68
2022/06/26 02:56:24;;;;;;;6.10;5.50;;;17.50;99.90;;;;;;5051393;28;20458;-67
2022/06/26 02:58:51;;;;;;;5.73;5.23;;;17.50;99.90;;;;;;5051150;28;20483;-67
2022/06/26 03:01:19;;;;;;;8.50;5.70;;;17.60;99.90;;;;;;5050928;28;20530;-67
2022/06/26 03:03:45;;;;;;;5.10;4.40;;;17.60;99.90;;;;;;5051322;28;20468;-67
2022/06/26 03:06:12;;;;;;;7.50;5.63;;;17.80;99.90;;;;;;5050064;28;21045;-67
2022/06/26 03:08:39;;;;;;;8.10;5.20;;;17.70;99.90;;;;;;5050940;28;20459;-67
2022/06/26 03:11:06;;;;;;;6.90;5.50;;;17.80;99.90;;;;;;5050661;28;20467;-67
2022/06/26 03:13:32;;;;;;;5.60;5.10;;;17.80;99.90;;;;;;5050762;28;20494;-67
2022/06/26 03:15:59;;;;;;;8.00;4.90;;;17.80;99.90;;;;;;5051035;28;20458;-67
2022/06/26 03:18:27;;;;;;;7.87;6.10;;;17.90;99.90;;;;;;5050813;28;20456;-67
2022/06/26 03:20:54;;;;;;;5.33;4.80;;;17.80;99.90;;;;;;5050589;28;20451;-67
2022/06/26 03:24:00;;;;;;;6.03;5.43;;;17.80;99.90;;;;;;5050638;28;20463;-67
2022/06/26 03:26:08;;;;;;;8.73;5.20;;;17.70;99.90;;;;;;5050503;28;20448;-66
2022/06/26 03:28:34;;;;;;;5.43;4.67;;;17.70;99.90;;;;;;5050741;28;20555;-67
2022/06/26 03:31:01;;;;;;;5.87;5.37;;;17.70;99.90;;;;;;5050447;28;20450;-67
2022/06/26 03:33:30;;;;;;;5.83;5.27;;;17.80;99.90;;;;;;5050278;28;20472;-67
2022/06/26 03:35:58;;;;;;;6.47;5.03;;;17.80;99.90;;;;;;5050514;28;20455;-67
2022/06/26 03:38:25;;;;;;;5.33;4.53;;;17.80;99.90;;;;;;5050233;28;20455;-67
2022/06/26 03:40:51;;;;;;;6.13;5.53;;;17.80;99.90;;;;;;5050429;28;20448;-66
2022/06/26 03:43:18;;;;;;;5.97;4.73;;;17.80;99.90;;;;;;5050164;28;20474;-67
2022/06/26 03:45:45;;;;;;;5.37;4.40;;;17.90;99.90;;;;;;5050302;28;20459;-67
2022/06/26 03:48:12;;;;;;;4.67;4.27;;;18.10;99.90;;;;;;5050189;28;20444;-67
2022/06/26 03:50:40;;;;;;;3.90;3.57;;;18.10;99.90;;;;;;5049829;28;20903;-67
2022/06/26 03:53:07;;;;;;;4.90;4.40;;;18.20;99.90;;;;;;5049836;28;20479;-67
2022/06/26 03:55:34;;;;;;;7.90;4.03;;;18.20;99.90;;;;;;5050208;28;20480;-67
2022/06/26 03:58:01;;;;;;;5.50;4.10;;;18.20;99.90;;;;;;5050328;28;20448;-67
2022/06/26 04:00:28;;;;;;;4.90;4.40;;;18.20;99.90;;;;;;5049545;28;20546;-67
2022/06/26 04:02:55;;;;;;;5.50;4.20;;;18.30;99.90;;;;;;5050729;28;20486;-68
2022/06/26 04:05:23;;;;;;;4.43;4.03;;;18.30;99.90;;;;;;5049768;28;20455;-67
2022/06/26 04:07:51;;;;;;;5.60;4.30;;;18.40;99.90;;;;;;5050012;28;21088;-67
2022/06/26 04:10:17;;;;;;;4.77;4.20;;;18.40;99.90;;;;;;5049657;28;20444;-67
2022/06/26 04:12:44;;;;;;;6.20;4.70;;;18.40;99.90;;;;;;5049879;28;20476;-68
2022/06/26 04:15:11;;;;;;;5.73;4.80;;;18.40;99.90;;;;;;5049776;28;20483;-68
2022/06/26 04:17:38;;;;;;;5.43;4.70;;;18.50;99.90;;;;;;5049706;28;20807;-67
2022/06/26 04:20:06;;;;;;;5.87;5.27;;;18.50;99.90;;;;;;5048912;28;20498;-67
2022/06/26 04:22:33;;;;;;;5.40;4.50;;;18.50;99.90;;;;;;5049702;28;20468;-67
2022/06/26 04:25:02;;;;;;;5.03;4.50;;;18.50;99.90;;;;;;5049536;28;20794;-67
2022/06/26 04:27:29;;;;;;;5.00;4.40;;;18.60;99.90;;;;;;5049705;28;20462;-67
2022/06/26 04:29:55;;;;;;;5.20;4.33;;;18.70;99.90;;;;;;5048536;28;20447;-67
2022/06/26 04:32:22;;;;;;;4.23;3.83;;;18.80;99.90;;;;;;5049709;28;20459;-67
2022/06/26 04:34:49;;;;;;;8.23;4.57;;;18.90;99.90;;;;;;5049593;28;20519;-67
2022/06/26 04:37:16;;;;;;;5.10;4.60;;;18.90;99.90;;;;;;5049557;28;20448;-68
2022/06/26 04:39:42;;;;;;;6.40;4.30;;;18.90;99.90;;;;;;5049255;28;20454;-67
2022/06/26 04:42:11;;;;;;;4.90;4.33;;;18.90;99.90;;;;;;5049197;28;20487;-67
2022/06/26 04:44:37;;;;;;;5.17;4.63;;;19.00;99.90;;;;;;5049865;28;20448;-67
2022/06/26 04:47:04;;;;;;;6.27;4.77;;;18.90;99.90;;;;;;5049445;28;20459;-68
2022/06/26 04:49:31;;;;;;;4.93;4.50;;;18.90;99.90;;;;;;5049562;28;20448;-66
2022/06/26 04:51:58;;;;;;;5.10;4.60;;;18.90;99.90;;;;;;5049200;28;20455;-67
2022/06/26 04:54:25;;;;;;;6.70;3.80;;;19.10;99.90;;;;;;5049314;28;20871;-67
2022/06/26 04:56:52;;;;;;;6.57;4.30;;;19.10;99.90;;;;;;5049219;28;20448;-67
2022/06/26 04:59:20;;;;;;;4.30;3.90;;;19.30;99.90;;;;;;5049556;28;20834;-67
2022/06/26 05:01:46;;;;;;;6.10;4.40;;;19.40;99.90;;;;;;5048930;28;20448;-65
2022/06/26 05:04:13;;;;;;;4.47;3.83;;;19.60;99.90;;;;;;5049576;28;20827;-67
2022/06/26 05:06:40;;;;;;;4.30;3.77;;;19.60;99.90;;;;;;5049307;28;20452;-68
2022/06/26 05:09:07;;;;;;;4.30;3.50;;;19.60;99.90;;;;;;5049175;28;20456;-68
2022/06/26 05:11:34;;;;;;;3.93;3.53;;;19.80;99.90;;;;;;5048790;28;20801;-68
2022/06/26 05:14:00;;;;;;;5.10;3.60;;;19.70;99.90;;;;;;5049068;28;20468;-67
2022/06/26 05:16:28;;;;;;;4.27;3.87;;;19.90;99.90;;;;;;5049207;28;20531;-68
2022/06/26 05:18:55;;;;;;;4.23;3.80;;;20.00;99.90;;;;;;5049267;28;20475;-65
2022/06/26 05:21:22;;;;;;;4.00;3.60;;;20.00;99.90;;;;;;5049132;28;20461;-67
2022/06/26 05:23:49;;;;;;;4.00;3.20;;;20.10;99.90;;;;;;5049377;28;20844;-68
2022/06/26 05:26:15;;;;;;;6.03;4.10;;;20.20;99.90;;;;;;5049736;28;20476;-67
2022/06/26 05:28:42;;;;;;;4.13;3.50;;;20.40;99.90;;;;;;5050926;28;20452;-68
2022/06/26 05:31:09;;;;;;;3.57;2.90;;;20.50;99.90;;;;;;5052752;28;20456;-68
2022/06/26 05:33:37;;;;;;;3.83;3.23;;;20.70;99.90;;;;;;5052833;28;20475;-66
2022/06/26 05:36:06;;;;;;;5.03;3.50;;;20.90;99.90;;;;;;5052831;28;20487;-68
2022/06/26 05:38:32;;;;;;;5.53;3.30;;;21.00;99.90;;;;;;5052856;28;20964;-68
2022/06/26 05:40:59;;;;;;;4.20;3.20;;;20.90;99.90;;;;;;5052637;28;21015;-67
2022/06/26 05:43:26;;;;;;;4.13;3.63;;;20.80;99.90;;;;;;5052610;28;20474;-68
2022/06/26 05:45:53;;;;;;;4.27;3.60;;;20.90;99.90;;;;;;5052850;28;20443;-67
2022/06/26 05:48:20;;;;;;;3.90;3.50;;;21.00;99.90;;;;;;5052415;28;20444;-67
2022/06/26 05:50:48;;;;;;;4.70;3.60;;;21.10;99.90;;;;;;5052142;28;20455;-67
2022/06/26 05:53:15;;;;;;;3.70;3.40;;;21.30;99.90;;;;;;5052543;28;20476;-67
2022/06/26 05:55:42;;;;;;;4.50;3.40;;;21.50;99.90;;;;;;5052581;28;20487;-67
2022/06/26 05:58:09;;;;;;;5.20;4.00;;;21.50;99.90;;;;;;5053441;28;20459;-68
2022/06/26 06:00:36;;;;;;;5.00;3.40;;;21.40;99.90;;;;;;5052006;28;20950;-68
2022/06/26 06:03:03;;;;;;;4.17;3.70;;;21.10;99.90;;;;;;5052281;28;20474;-67
2022/06/26 06:05:30;;;;;;;6.57;3.77;;;20.90;99.90;;;;;;5052264;28;20451;-67
2022/06/26 06:07:58;;;;;;;4.63;3.83;;;20.90;99.90;;;;;;5052288;28;20455;-67
2022/06/26 06:10:26;;;;;;;3.70;3.40;;;20.70;99.90;;;;;;5051816;28;20456;-67
2022/06/26 06:12:53;;;;;;;4.33;3.67;;;20.70;99.90;;;;;;5051960;28;20468;-67
2022/06/26 06:15:21;;;;;;;4.03;3.27;;;20.50;99.90;;;;;;5051843;28;21004;-67
2022/06/26 06:17:48;;;;;;;4.03;3.43;;;20.30;99.90;;;;;;5052165;28;20968;-68
2022/06/26 06:20:18;;;;;;;4.37;3.97;;;20.20;99.90;;;;;;5051563;28;20447;-68
2022/06/26 06:22:46;;;;;;;5.40;4.10;;;20.20;99.90;;;;;;5051940;28;21179;-67
2022/06/26 06:25:15;;;;;;;4.40;3.77;;;20.20;99.90;;;;;;5051938;28;20884;-68
2022/06/26 06:27:42;;;;;;;5.50;4.37;;;20.30;99.90;;;;;;5051878;28;20444;-68
2022/06/26 06:30:11;;;;;;;5.50;4.90;;;20.40;99.90;;;;;;5051224;28;20450;-68
2022/06/26 06:32:38;;;;;;;5.20;4.00;;;20.40;99.90;;;;;;5051572;28;20463;-68
2022/06/26 06:35:06;;;;;;;3.70;3.40;;;20.50;99.90;;;;;;5051636;28;20487;-67
2022/06/26 06:37:32;;;;;;;4.60;3.40;;;20.60;99.90;;;;;;5051655;28;20443;-68
2022/06/26 06:39:59;;;;;;;6.37;3.70;;;20.60;99.90;;;;;;5050192;28;20482;-68
2022/06/26 06:42:27;;;;;;;5.23;3.60;;;20.60;99.90;;;;;;5051817;28;20842;-68
2022/06/26 06:44:54;;;;;;;2.80;2.50;;;20.70;99.90;;;;;;5051686;28;20452;-67
2022/06/26 06:47:21;;;;;;;3.57;3.17;;;20.70;99.90;;;;;;5051453;28;20454;-67
2022/06/26 06:49:48;;;;;;;12.37;3.43;;;20.80;99.90;;;;;;5051299;28;20451;-67
2022/06/26 06:52:14;;;;;;;4.70;4.20;;;21.00;99.90;;;;;;5051210;28;21023;-68
2022/06/26 06:54:41;;;;;;;3.50;2.70;;;21.00;99.90;;;;;;5051229;28;21036;-68
2022/06/26 06:57:08;;;;;;;4.20;2.90;;;21.00;99.90;;;;;;5051587;28;20444;-67
2022/06/26 06:59:36;;;;;;;3.10;2.20;;;21.20;99.90;;;;;;5051487;28;20836;-68
2022/06/26 07:02:03;;;;;;;2.87;2.07;;;21.20;99.90;;;;;;5051070;28;20452;-68
2022/06/26 07:04:30;;;;;;;2.80;1.90;;;21.30;99.90;;;;;;5051148;28;20451;-67
2022/06/26 07:06:57;;;;;;;3.80;2.57;;;21.30;99.90;;;;;;5051178;28;20475;-68
2022/06/26 07:09:24;;;;;;;3.10;2.30;;;21.40;99.90;;;;;;5050997;28;20444;-67
2022/06/26 07:11:52;;;;;;;3.90;2.23;;;21.40;99.90;;;;;;5050743;28;20451;-68
2022/06/26 07:14:18;;;;;;;2.70;1.90;;;21.50;99.90;;;;;;5050838;28;20448;-68
2022/06/26 07:16:47;;;;;;;3.50;2.23;;;21.60;99.90;;;;;;5051084;28;20490;-69
2022/06/26 07:19:14;;;;;;;2.40;1.97;;;21.70;99.90;;;;;;5051011;28;20543;-69
2022/06/26 07:21:43;;;;;;;2.93;1.97;;;21.70;99.90;;;;;;5050796;28;20440;-68
2022/06/26 07:24:10;;;;;;;2.70;2.30;;;21.60;99.90;;;;;;5050700;28;20472;-68
2022/06/26 07:26:37;;;;;;;2.60;1.57;;;21.70;99.90;;;;;;5050899;28;20528;-69
2022/06/26 07:29:04;;;;;;;2.53;1.77;;;21.80;99.90;;;;;;5050408;28;21158;-69
2022/06/26 07:31:31;;;;;;;2.30;1.60;;;21.80;99.90;;;;;;5050571;28;20443;-69
2022/06/26 07:34:16;;;;;;;2.50;1.90;;;22.00;99.90;;;;;;5050523;28;20468;-69
2022/06/26 07:36:44;;;;;;;2.60;1.83;;;22.10;99.90;;;;;;5050748;28;21020;-69
2022/06/26 07:39:12;;;;;;;3.10;2.00;;;22.20;99.90;;;;;;5050588;28;20531;-69
2022/06/26 07:41:40;;;;;;;3.83;2.00;;;22.20;99.90;;;;;;5050310;28;20458;-68
2022/06/26 07:44:07;;;;;;;3.27;1.73;;;22.30;99.90;;;;;;5050450;28;20467;-67
2022/06/26 07:46:34;;;;;;;3.93;2.20;;;22.30;99.90;;;;;;5050520;28;20954;-66
2022/06/26 07:49:02;;;;;;;2.70;1.93;;;22.40;99.90;;;;;;5050273;28;20535;-66
2022/06/26 07:51:29;;;;;;;2.53;1.83;;;22.50;99.90;;;;;;5049543;28;20452;-66
2022/06/26 07:53:56;;;;;;;2.70;1.90;;;22.60;99.90;;;;;;5049835;28;20479;-66
2022/06/26 07:56:25;;;;;;;2.70;1.67;;;22.60;99.90;;;;;;5050227;28;20483;-67
2022/06/26 07:58:52;;;;;;;3.60;1.50;;;22.60;99.90;;;;;;5050114;28;20448;-66
2022/06/26 08:01:19;;;;;;;2.28;1.30;;;22.70;99.90;;;;;;5049567;28;20442;-67
2022/06/26 08:03:46;;;;;;;3.50;1.50;;;22.80;99.90;;;;;;5049935;28;20225;-66
2022/06/26 08:06:14;;;;;;;2.27;1.47;;;22.90;99.90;;;;;;5049493;28;20451;-66
2022/06/26 08:08:41;;;;;;;2.47;1.23;;;23.00;99.90;;;;;;5047804;28;20460;-65
2022/06/26 08:11:08;;;;;;;2.10;1.13;;;23.00;99.90;;;;;;5040165;28;20457;-73
2022/06/26 08:13:35;;;;;;;2.00;1.30;;;23.00;99.90;;;;;;5047145;28;20467;-68
2022/06/26 08:16:02;;;;;;;1.97;1.10;;;23.00;99.90;;;;;;5039159;28;20477;-68
2022/06/26 08:18:29;;;;;;;2.80;1.40;;;23.10;99.90;;;;;;5049894;28;20448;-68
2022/06/26 08:20:55;;;;;;;2.30;1.30;;;23.30;99.90;;;;;;5049428;28;20448;-69
2022/06/26 08:23:24;;;;;;;2.30;1.23;;;23.30;99.90;;;;;;5049939;28;20463;-68
2022/06/26 08:25:51;;;;;;;2.40;1.60;;;23.40;99.90;;;;;;5049693;28;20968;-70
2022/06/26 08:28:17;;;;;;;2.57;1.50;;;23.50;99.90;;;;;;5049803;28;20448;-69
2022/06/26 08:30:44;;;;;;;2.70;1.40;;;23.50;99.90;;;;;;5049284;28;20831;-69
2022/06/26 08:33:11;;;;;;;2.43;1.63;;;23.50;99.90;;;;;;5049581;28;20988;-74
2022/06/26 08:35:38;;;;;;;2.30;1.50;;;23.50;99.90;;;;;;5041822;28;21020;-68
2022/06/26 08:38:05;;;;;;;2.83;1.40;;;23.60;99.90;;;;;;5047519;28;20452;-70
2022/06/26 08:40:33;;;;;;;2.30;1.60;;;23.80;99.90;;;;;;5046761;28;20456;-75
2022/06/26 08:43:02;;;;;;;3.63;1.60;;;23.70;99.90;;;;;;5038918;28;20472;-68
2022/06/26 08:45:30;;;;;;;2.23;1.53;;;23.70;99.90;;;;;;5038326;28;20454;-67
2022/06/26 08:47:58;;;;;;;2.30;1.60;;;23.70;99.90;;;;;;5044871;28;20445;-68
2022/06/26 08:50:26;;;;;;;4.00;1.63;;;23.60;99.90;;;;;;5045072;28;21027;-68
2022/06/26 08:52:53;;;;;;;2.70;1.63;;;23.50;99.90;;;;;;5047654;28;20467;-69
2022/06/26 08:55:21;;;;;;;2.37;1.50;;;23.40;99.90;;;;;;5043018;28;20480;-76
2022/06/26 08:57:50;;;;;;;1.90;1.40;;;23.50;99.90;;;;;;5046838;28;20436;-70
2022/06/26 09:00:18;;;;;;;4.20;1.90;;;23.60;99.90;;;;;;5049160;28;20436;-69
2022/06/26 09:02:46;;;;;;;2.20;1.30;;;23.70;99.90;;;;;;5049234;28;20467;-69
2022/06/26 09:05:13;;;;;;;2.77;1.87;;;23.90;99.90;;;;;;5053706;28;20428;-68
2022/06/26 09:07:48;;;;;;;3.07;1.60;;;24.00;99.90;;;;;;5053394;28;20440;-69
2022/06/26 09:10:17;;;;;;;2.40;1.50;;;24.20;99.90;;;;;;5052118;28;20455;-67
2022/06/26 09:12:44;;;;;;;3.60;1.70;;;24.10;99.90;;;;;;5050646;28;20459;-68
2022/06/26 09:15:19;;;;;;;2.70;1.80;;;24.20;99.90;;;;;;5050452;28;20447;-71
2022/06/26 09:17:59;;;;;;;2.30;1.60;;;24.20;99.90;;;;;;5044236;28;20486;-68
2022/06/26 09:20:26;;;;;;;2.30;1.60;;;24.10;99.90;;;;;;5040857;28;20447;-70
2022/06/26 09:22:54;;;;;;;3.37;1.30;;;24.10;99.90;;;;;;5036585;28;20456;-69
2022/06/26 09:25:21;;;;;;;2.30;1.40;;;24.10;99.90;;;;;;5049822;28;20456;-69
2022/06/26 09:27:48;;;;;;;2.57;1.60;;;24.40;99.90;;;;;;5051411;28;20460;-69
2022/06/26 09:30:15;;;;;;;3.07;1.70;;;24.50;99.90;;;;;;5052200;28;20780;-69
2022/06/26 09:32:43;;;;;;;2.23;1.50;;;24.60;99.90;;;;;;5050206;28;20487;-69
2022/06/26 09:35:10;;;;;;;2.97;1.50;;;24.50;99.90;;;;;;5050616;28;20799;-68
2022/06/26 09:37:38;;;;;;;2.90;1.97;;;24.60;99.90;;;;;;5053278;28;20456;-69
2022/06/26 09:40:06;;;;;;;2.53;1.50;;;24.80;99.90;;;;;;5046833;28;20957;-68
2022/06/26 09:42:36;;;;;;;2.00;1.40;;;25.00;99.90;;;;;;5050611;28;20826;-69
2022/06/26 09:45:04;;;;;;;2.57;1.50;;;25.00;99.90;;;;;;5048443;28;20508;-69
2022/06/26 09:47:32;;;;;;;2.40;1.70;;;24.90;99.90;;;;;;5047442;28;20436;-68
2022/06/26 09:50:02;;;;;;;2.47;1.50;;;25.00;99.90;;;;;;5045932;28;20539;-68
2022/06/26 09:52:31;;;;;;;2.97;1.47;;;25.20;99.90;;;;;;5046263;28;20475;-68
2022/06/26 09:55:00;;;;;;;3.97;3.23;;;25.30;99.90;;;;;;5050694;28;20448;-68
2022/06/26 09:57:28;;;;;;;2.53;1.70;;;25.50;99.90;;;;;;5050412;28;20908;-68
2022/06/26 09:59:55;;;;;;;2.60;1.50;;;25.50;99.90;;;;;;5046955;28;20455;-68
2022/06/26 10:07:57;;;;;;;2.70;1.93;;;27.20;99.90;;;;;;5044339;28;20443;-68
2022/06/26 10:10:25;;;;;;;2.03;1.50;;;27.90;99.70;;;;;;5042984;28;20446;-69
2022/06/26 10:12:56;;;;;;;3.70;1.70;;;28.50;97.80;;;;;;5047844;28;21080;-68
2022/06/26 10:15:27;;;;;;;2.67;1.27;;;28.70;99.40;;;;;;5043062;28;20459;-68
2022/06/26 10:18:27;;;;;;;3.40;1.40;;;28.80;97.10;;;;;;5045829;28;20455;-67
2022/06/26 10:20:57;;;;;;;2.40;1.30;;;29.80;96.50;;;;;;5038678;28;20463;-66
2022/06/26 10:23:35;;;;;;;2.10;1.40;;;29.50;94.90;;;;;;5046135;28;21085;-67
2022/06/26 10:26:15;;;;;;;2.70;1.40;;;29.00;95.60;;;;;;5047231;28;20865;-67
2022/06/26 10:28:59;;;;;;;1.83;1.07;;;29.90;96.60;;;;;;5045913;28;20433;-68
2022/06/26 10:31:26;;;;;;;2.20;1.20;;;30.60;93.10;;;;;;5048752;28;20443;-67
2022/06/26 10:33:53;;;;;;;2.00;1.40;;;30.20;93.10;;;;;;5050972;28;20460;-68
2022/06/26 10:36:24;;;;;;;2.40;1.50;;;30.20;92.90;;;;;;5049742;28;20488;-67
2022/06/26 10:38:51;;;;;;;1.90;1.10;;;30.30;93.10;;;;;;5050744;28;20448;-67
2022/06/26 10:44:05;;;;;;;1.90;1.00;;;29.30;94.50;;;;;;5047842;28;21036;-67
2022/06/26 10:46:37;;;;;;;2.23;1.40;;;29.30;95.40;;;;;;5042831;28;20823;-67
2022/06/26 10:49:07;;;;;;;2.03;1.33;;;30.00;94.20;;;;;;5041581;28;21025;-67
2022/06/26 10:51:39;;;;;;;2.70;1.40;;;30.40;94.10;;;;;;5039841;28;20463;-66
2022/06/26 10:54:18;;;;;;;2.20;1.47;;;30.20;93.00;;;;;;5048398;28;20474;-67
2022/06/26 10:56:45;;;;;;;2.07;1.23;;;30.90;96.70;;;;;;5041969;28;20553;-67
2022/06/26 10:59:12;;;;;;;1.90;1.07;;;30.90;91.80;;;;;;5048904;28;20451;-67
2022/06/26 11:01:39;;;;;;;4.13;1.30;;;30.30;92.10;;;;;;5045254;28;20467;-67
2022/06/26 11:04:06;;;;;;;2.10;1.20;;;29.90;93.80;;;;;;5050281;28;20531;-67
2022/06/26 11:06:39;;;;;;;2.20;1.50;;;30.00;93.50;;;;;;5049558;28;20456;-67
2022/06/26 11:09:08;;;;;;;2.43;1.77;;;30.30;91.40;;;;;;5045857;28;20952;-65
2022/06/26 11:11:35;;;;;;;6.53;1.50;;;29.90;91.60;;;;;;5043633;28;20958;-67
2022/06/26 11:14:05;;;;;;;2.70;1.57;;;29.60;92.80;;;;;;5048322;28;20514;-67
2022/06/26 11:16:33;;;;;;;2.40;1.50;;;29.80;93.10;;;;;;5048228;28;20484;-67
2022/06/26 11:19:03;;;;;;;2.80;1.33;;;30.10;91.70;;;;;;5045275;28;20460;-67
2022/06/26 11:21:30;;;;;;;2.17;1.30;;;30.40;90.80;;;;;;5046511;28;20955;-67
2022/06/26 11:23:59;;;;;;;2.00;1.10;;;30.00;91.30;;;;;;5049447;28;20493;-67
2022/06/26 11:26:26;;;;;;;2.37;1.30;;;29.70;91.00;;;;;;5044138;28;20547;-67
2022/06/26 11:28:58;;;;;;;1.90;1.13;;;29.50;91.40;;;;;;5044529;28;20530;-67
2022/06/26 11:31:27;;;;;;;2.63;1.20;;;29.40;92.10;;;;;;5046210;28;20452;-68
2022/06/26 11:33:54;;;;;;;2.20;1.30;;;29.40;92.20;;;;;;5043586;28;20471;-67
2022/06/26 11:36:22;;;;;;;2.30;1.63;;;29.60;92.40;;;;;;5054677;28;20947;-67
2022/06/26 11:38:52;;;;;;;2.20;1.40;;;29.30;92.50;;;;;;5049592;28;20447;-67
2022/06/26 11:41:22;;;;;;;3.07;1.30;;;29.20;92.70;;;;;;5049867;28;20451;-67
2022/06/26 11:43:50;;;;;;;1.93;1.07;;;29.40;93.10;;;;;;5050098;28;20479;-67
2022/06/26 11:46:17;;;;;;;2.43;1.30;;;29.70;91.70;;;;;;5049548;28;20800;-67
2022/06/26 11:48:44;;;;;;;2.03;1.47;;;29.90;92.90;;;;;;5049939;28;20447;-67
2022/06/26 11:51:13;;;;;;;2.10;1.10;;;30.30;91.40;;;;;;5048119;28;20889;-67
2022/06/26 11:53:44;;;;;;;2.60;1.50;;;30.60;90.20;;;;;;5049157;28;20495;-67
2022/06/26 11:56:18;;;;;;;1.97;1.30;;;30.70;87.60;;;;;;5049595;28;20432;-68
2022/06/26 11:58:49;;;;;;;4.00;1.57;;;30.70;89.20;;;;;;5049759;28;20468;-67
2022/06/26 12:01:16;;;;;;;1.90;1.20;;;31.30;88.00;;;;;;5049538;28;21106;-66
2022/06/26 12:03:52;;;;;;;3.13;1.13;;;31.70;88.40;;;;;;5049320;28;20459;-68
2022/06/26 12:06:28;;;;;;;2.80;1.60;;;31.40;86.00;;;;;;5049668;28;20467;-68
2022/06/26 12:08:56;;;;;;;2.57;1.37;;;31.20;86.10;;;;;;5049326;28;20869;-67
2022/06/26 12:11:23;;;;;;;2.07;1.27;;;30.80;89.00;;;;;;5049330;28;20483;-68
2022/06/26 12:13:52;;;;;;;2.37;1.30;;;30.60;89.60;;;;;;5049037;28;20550;-67
2022/06/26 12:16:19;;;;;;;2.93;1.13;;;30.40;90.60;;;;;;5049101;28;20577;-67
2022/06/26 12:18:49;;;;;;;1.90;1.30;;;30.80;90.30;;;;;;5049172;28;20448;-68
2022/06/26 12:21:17;;;;;;;2.40;1.30;;;31.30;87.00;;;;;;5049239;28;20488;-68
2022/06/26 12:23:45;;;;;;;3.20;1.20;;;32.00;85.70;;;;;;5049720;28;20562;-68
2022/06/26 12:26:14;;;;;;;2.50;1.20;;;32.00;85.90;;;;;;5047833;28;20432;-69
2022/06/26 12:28:46;;;;;;;1.90;1.10;;;32.10;83.90;;;;;;5046479;28;20490;-68
2022/06/26 12:31:16;;;;;;;2.10;1.30;;;32.20;84.40;;;;;;5043408;28;20514;-69
2022/06/26 12:33:43;;;;;;;4.13;1.30;;;31.70;84.60;;;;;;5047874;28;20980;-68
2022/06/26 12:36:10;;;;;;;2.57;1.30;;;31.00;85.80;;;;;;5043849;28;20454;-67
2022/06/26 12:38:38;;;;;;;4.33;1.40;;;31.10;85.40;;;;;;5044621;28;20483;-67
2022/06/26 12:41:06;;;;;;;2.00;1.20;;;31.50;86.50;;;;;;5047050;28;20539;-68
2022/06/26 12:43:33;;;;;;;1.97;1.40;;;31.70;83.90;;;;;;5051045;28;20479;-68
2022/06/26 12:46:00;;;;;;;1.83;1.10;;;32.00;83.60;;;;;;5048964;28;20883;-68
2022/06/26 12:48:28;;;;;;;1.90;1.00;;;32.00;81.40;;;;;;5048111;28;20868;-68
2022/06/26 12:50:56;;;;;;;3.00;1.83;;;32.10;82.60;;;;;;5048830;28;20539;-67
2022/06/26 12:53:23;;;;;;;2.77;1.73;;;32.40;81.20;;;;;;5045954;28;20530;-68
2022/06/26 12:55:50;;;;;;;2.00;1.23;;;32.60;81.40;;;;;;5048663;28;20518;-67
2022/06/26 12:58:17;;;;;;;3.10;1.40;;;32.50;79.70;;;;;;5047078;28;20567;-70
2022/06/26 13:00:44;;;;;;;2.40;1.20;;;32.20;81.70;;;;;;5048258;28;20494;-68
2022/06/26 13:03:11;;;;;;;2.50;1.33;;;32.30;80.50;;;;;;5048504;28;20530;-69